Absaraka, North Dakota
Current Conditions -  °F | °C
As of 2:53 PM on Monday 22 Dec 2014 (Local Time) from KFAR Reporting Station
Overcast Overcast  
Wind Chill: 34°   Ceiling: 600
Heat Index: 41°   Visibility: 9mi
Dew Point: 38°   Wind: 12mph
Humidity: 89%   Direction: 110°ESE
Pressure: 29.51"   Gusts: NA
Location:  46.98°N, 97.39°W
Report Text: KFAR 222053Z 11010KT 9SM OVC006 05/03 A2951 RMK AO2 CIG 005V009 SLP002 60002 T00500033 53005
Loading
Personal Weather Stations






























Interactive Weather Map New forecast layout! Learn more

10-Day Weather Forecast

Advertisements
Track Severe Weather on mobile